Time;durP1;ratioP1;P1;durP2;ratioP2;P2;SDS_P1;SDS_P2;PMS_P1;PMS_P2;Temp;Humidity;BMP_temperature;BMP_pressure;BME280_temperature;BME280_humidity;BME280_pressure;Samples;Min_cycle;Max_cycle;Signal;HPM_P1;HPM_P2
2023/04/08 00:00:13;;;;;;;4.35;3.95;;;;;;;;;;5073594;28;20228;-86
2023/04/08 00:02:41;;;;;;;5.07;4.20;;;;;;;;;;5074608;28;20331;-85
2023/04/08 00:05:09;;;;;;;5.30;3.75;;;;;;;;;;5073191;28;20221;-85
2023/04/08 00:07:37;;;;;;;5.00;4.60;;;;;;;;;;5072930;28;20700;-85
2023/04/08 00:10:06;;;;;;;4.85;4.35;;;;;;;;;;5073065;28;20295;-86
2023/04/08 00:12:35;;;;;;;4.97;4.32;;;;;;;;;;5073513;28;20225;-86
2023/04/08 00:15:03;;;;;;;4.80;4.30;;;;;;;;;;5073767;28;20292;-86
2023/04/08 00:17:30;;;;;;;3.80;3.50;;;;;;;;;;5073111;28;20665;-85
2023/04/08 00:19:58;;;;;;;4.53;4.10;;;;;;;;;;5073292;28;20236;-86
2023/04/08 00:22:25;;;;;;;4.88;4.32;;;;;;;;;;5073371;28;20193;-85
2023/04/08 00:24:53;;;;;;;5.72;4.55;;;;;;;;;;5073290;28;20208;-85
2023/04/08 00:27:20;;;;;;;4.90;4.35;;;;;;;;;;5073255;28;20207;-86
2023/04/08 00:29:49;;;;;;;6.35;4.40;;;;;;;;;;5072931;28;20279;-84
2023/04/08 00:32:17;;;;;;;6.70;5.85;;;;;;;;;;5072956;28;20308;-85
2023/04/08 00:34:44;;;;;;;5.60;4.53;;;;;;;;;;5072752;28;20235;-85
2023/04/08 00:37:12;;;;;;;5.22;4.57;;;;;;;;;;5073148;28;20614;-85
2023/04/08 00:39:40;;;;;;;5.15;4.32;;;;;;;;;;5073060;28;20284;-86
2023/04/08 00:42:08;;;;;;;4.65;4.25;;;;;;;;;;5072910;28;20201;-85
2023/04/08 00:44:36;;;;;;;6.07;5.15;;;;;;;;;;5073536;28;20717;-86
2023/04/08 00:47:05;;;;;;;5.15;4.65;;;;;;;;;;5075209;28;20311;-85
2023/04/08 00:49:33;;;;;;;4.82;4.22;;;;;;;;;;5077569;28;20236;-85
2023/04/08 00:52:00;;;;;;;5.28;4.65;;;;;;;;;;5077368;28;20307;-85
2023/04/08 00:54:28;;;;;;;5.07;4.25;;;;;;;;;;5077431;28;20641;-85
2023/04/08 00:56:55;;;;;;;5.63;5.03;;;;;;;;;;5077516;28;20248;-85
2023/04/08 00:59:23;;;;;;;4.45;4.05;;;;;;;;;;5076760;28;20562;-85
2023/04/08 01:01:57;;;;;;;5.13;4.63;;;;;;;;;;5077586;28;20291;-85
2023/04/08 01:04:32;;;;;;;4.65;4.13;;;;;;;;;;5076834;28;20287;-86
2023/04/08 01:07:06;;;;;;;4.80;4.30;;;;;;;;;;5076812;28;20307;-85
2023/04/08 01:09:36;;;;;;;4.55;4.15;;;;;;;;;;5077100;28;20186;-85
2023/04/08 01:12:07;;;;;;;4.57;4.13;;;;;;;;;;5076998;28;20314;-86
2023/04/08 01:14:40;;;;;;;4.93;4.15;;;;;;;;;;5077759;28;20624;-86
2023/04/08 01:17:08;;;;;;;5.65;4.28;;;;;;;;;;5077227;28;20335;-85
2023/04/08 01:19:40;;;;;;;6.82;4.30;;;;;;;;;;5076794;28;20194;-86
2023/04/08 01:22:16;;;;;;;5.30;4.15;;;;;;;;;;5077640;28;20717;-86
2023/04/08 01:24:45;;;;;;;5.45;4.95;;;;;;;;;;5076800;28;20244;-86
2023/04/08 01:27:15;;;;;;;7.10;4.57;;;;;;;;;;5076734;28;20259;-85
2023/04/08 01:29:43;;;;;;;4.90;4.40;;;;;;;;;;5076867;28;20594;-86
2023/04/08 01:32:11;;;;;;;5.22;3.42;;;;;;;;;;5077010;28;20265;-85
2023/04/08 01:34:40;;;;;;;4.75;4.35;;;;;;;;;;5058022;28;20646;-85
2023/04/08 01:37:08;;;;;;;4.47;3.45;;;;;;;;;;5056517;28;20660;-85
2023/04/08 01:39:36;;;;;;;4.20;3.80;;;;;;;;;;5056257;28;20288;-85
2023/04/08 01:42:04;;;;;;;4.93;4.53;;;;;;;;;;5056615;28;20609;-85
2023/04/08 01:44:33;;;;;;;3.92;3.53;;;;;;;;;;5056804;28;20242;-86
2023/04/08 01:47:01;;;;;;;4.05;3.65;;;;;;;;;;5056577;28;20225;-85
2023/04/08 01:49:29;;;;;;;4.40;3.95;;;;;;;;;;5056073;28;20701;-85
2023/04/08 01:51:57;;;;;;;4.93;4.43;;;;;;;;;;5056813;28;20232;-85
2023/04/08 01:54:25;;;;;;;4.20;3.70;;;;;;;;;;5056712;28;20197;-86
2023/04/08 01:56:53;;;;;;;3.70;3.35;;;;;;;;;;5055685;28;20217;-86
2023/04/08 01:59:22;;;;;;;5.78;3.00;;;;;;;;;;5056111;28;20237;-86
2023/04/08 02:01:52;;;;;;;4.07;3.78;;;;;;;;;;5056342;28;20632;-85
2023/04/08 02:04:20;;;;;;;3.00;2.80;;;;;;;;;;5055993;28;20552;-85
2023/04/08 02:06:48;;;;;;;3.75;3.28;;;;;;;;;;5055625;28;20282;-85
2023/04/08 02:09:15;;;;;;;3.95;3.55;;;;;;;;;;5055513;28;20756;-85
2023/04/08 02:11:42;;;;;;;3.53;3.20;;;;;;;;;;5056272;28;20204;-85
2023/04/08 02:14:10;;;;;;;4.13;3.50;;;;;;;;;;5056136;28;20289;-86
2023/04/08 02:16:43;;;;;;;4.30;3.78;;;;;;;;;;5055692;28;20592;-85
2023/04/08 02:19:15;;;;;;;3.95;3.45;;;;;;;;;;5056021;28;20211;-85
2023/04/08 02:21:46;;;;;;;4.13;3.72;;;;;;;;;;5056243;28;20190;-86
2023/04/08 02:24:15;;;;;;;3.88;3.35;;;;;;;;;;5055427;28;20209;-84
2023/04/08 02:26:44;;;;;;;3.08;2.78;;;;;;;;;;5055987;28;20244;-85
2023/04/08 02:29:15;;;;;;;3.05;2.75;;;;;;;;;;5056003;28;20205;-85
2023/04/08 02:31:45;;;;;;;3.97;3.00;;;;;;;;;;5056069;28;20631;-85
2023/04/08 02:34:14;;;;;;;3.15;2.55;;;;;;;;;;5070022;28;20644;-86
2023/04/08 02:36:44;;;;;;;3.13;2.88;;;;;;;;;;5075207;28;20274;-85
2023/04/08 02:39:12;;;;;;;3.55;3.25;;;;;;;;;;5075490;28;20239;-85
2023/04/08 02:41:40;;;;;;;4.15;2.97;;;;;;;;;;5075902;28;20201;-86
2023/04/08 02:44:08;;;;;;;3.38;3.03;;;;;;;;;;5075892;28;20296;-86
2023/04/08 02:46:35;;;;;;;2.70;2.50;;;;;;;;;;5075831;28;20240;-85
2023/04/08 02:49:03;;;;;;;3.42;3.13;;;;;;;;;;5075396;28;20560;-85
2023/04/08 02:51:32;;;;;;;3.03;2.70;;;;;;;;;;5075804;28;20292;-86
2023/04/08 02:54:00;;;;;;;3.08;2.80;;;;;;;;;;5075333;28;20227;-86
2023/04/08 02:56:27;;;;;;;4.18;3.33;;;;;;;;;;5074992;28;20248;-86
2023/04/08 02:58:55;;;;;;;3.25;2.95;;;;;;;;;;5075523;28;20237;-86
2023/04/08 03:01:22;;;;;;;4.10;3.28;;;;;;;;;;5075588;28;20292;-85
2023/04/08 03:03:50;;;;;;;3.35;3.10;;;;;;;;;;5075240;28;20291;-86
2023/04/08 03:06:18;;;;;;;3.65;3.25;;;;;;;;;;5074331;28;20311;-85
2023/04/08 03:08:46;;;;;;;3.08;2.78;;;;;;;;;;5077113;23;20518;-79
2023/04/08 03:11:14;;;;;;;4.50;3.15;;;;;;;;;;5047893;28;20202;-79
2023/04/08 03:13:41;;;;;;;3.22;2.90;;;;;;;;;;5038813;28;20297;-79
2023/04/08 03:16:09;;;;;;;2.80;2.60;;;;;;;;;;5039814;28;20293;-78
2023/04/08 03:18:36;;;;;;;3.00;2.72;;;;;;;;;;5039960;28;20209;-79
2023/04/08 03:21:04;;;;;;;2.90;2.60;;;;;;;;;;5038719;28;20198;-78
2023/04/08 03:23:31;;;;;;;2.70;2.50;;;;;;;;;;5038277;28;20309;-80
2023/04/08 03:26:00;;;;;;;4.10;3.38;;;;;;;;;;5038778;28;20270;-78
2023/04/08 03:28:28;;;;;;;4.75;3.63;;;;;;;;;;5039496;28;20275;-78
2023/04/08 03:30:59;;;;;;;3.03;2.78;;;;;;;;;;5039182;28;20207;-78
2023/04/08 03:33:27;;;;;;;4.35;3.97;;;;;;;;;;5038409;28;20229;-78
2023/04/08 03:35:54;;;;;;;3.60;2.95;;;;;;;;;;5038105;28;20297;-78
2023/04/08 03:38:22;;;;;;;4.07;3.67;;;;;;;;;;5037986;28;20269;-79
2023/04/08 03:40:49;;;;;;;4.18;2.97;;;;;;;;;;5054792;28;20312;-78
2023/04/08 03:43:20;;;;;;;2.97;2.67;;;;;;;;;;5058454;28;20223;-79
2023/04/08 03:45:48;;;;;;;3.20;3.00;;;;;;;;;;5058341;28;20206;-79
2023/04/08 03:48:15;;;;;;;4.53;3.50;;;;;;;;;;5058741;28;20308;-78
2023/04/08 03:50:43;;;;;;;4.20;3.55;;;;;;;;;;5057891;28;20292;-79
2023/04/08 03:53:11;;;;;;;4.22;3.42;;;;;;;;;;5058035;28;20703;-77
2023/04/08 03:55:39;;;;;;;4.10;3.70;;;;;;;;;;5058390;28;20206;-79
2023/04/08 03:58:06;;;;;;;3.50;3.20;;;;;;;;;;5058068;28;20296;-79
2023/04/08 04:00:36;;;;;;;4.47;3.90;;;;;;;;;;5058038;28;20651;-78
2023/04/08 04:03:04;;;;;;;5.13;3.83;;;;;;;;;;5058266;28;20222;-78
2023/04/08 04:05:31;;;;;;;6.22;4.32;;;;;;;;;;5057634;28;20288;-78
2023/04/08 04:07:58;;;;;;;3.70;3.30;;;;;;;;;;5088093;23;20369;-79
2023/04/08 04:10:26;;;;;;;4.07;3.78;;;;;;;;;;5116232;28;20691;-79
2023/04/08 04:12:53;;;;;;;3.78;3.10;;;;;;;;;;5117328;28;20204;-79
2023/04/08 04:15:21;;;;;;;3.88;3.53;;;;;;;;;;5118277;28;20665;-79
2023/04/08 04:17:50;;;;;;;4.30;3.60;;;;;;;;;;5119129;28;20232;-80
2023/04/08 04:20:18;;;;;;;4.78;4.15;;;;;;;;;;5117542;28;20732;-79
2023/04/08 04:22:46;;;;;;;4.63;4.15;;;;;;;;;;5118364;28;20207;-79
2023/04/08 04:25:13;;;;;;;3.53;3.22;;;;;;;;;;5120972;28;20286;-79
2023/04/08 04:27:41;;;;;;;5.53;4.32;;;;;;;;;;5118365;28;20260;-79
2023/04/08 04:30:14;;;;;;;4.80;4.00;;;;;;;;;;5114364;28;20287;-79
2023/04/08 04:32:41;;;;;;;5.30;4.25;;;;;;;;;;5115055;28;20207;-80
2023/04/08 04:35:10;;;;;;;4.43;4.03;;;;;;;;;;5114136;28;20753;-80
2023/04/08 04:37:38;;;;;;;4.78;4.30;;;;;;;;;;5114715;28;20208;-80
2023/04/08 04:40:07;;;;;;;4.50;4.10;;;;;;;;;;5113677;28;20204;-80
2023/04/08 04:42:34;;;;;;;4.68;4.28;;;;;;;;;;5113592;28;20199;-80
2023/04/08 04:45:02;;;;;;;3.95;3.65;;;;;;;;;;5114328;28;20596;-79
2023/04/08 04:47:31;;;;;;;4.35;3.95;;;;;;;;;;5113853;28;20210;-79
2023/04/08 04:49:59;;;;;;;4.68;4.28;;;;;;;;;;5113511;28;20667;-79
2023/04/08 04:52:28;;;;;;;4.72;4.20;;;;;;;;;;5113557;28;20299;-79
2023/04/08 04:54:56;;;;;;;5.00;4.57;;;;;;;;;;5114002;28;20245;-80
2023/04/08 04:57:24;;;;;;;4.38;3.97;;;;;;;;;;5113316;28;20663;-80
2023/04/08 04:59:51;;;;;;;5.90;5.10;;;;;;;;;;5113532;28;20226;-79
2023/04/08 05:02:19;;;;;;;3.72;3.42;;;;;;;;;;5113805;28;20290;-79
2023/04/08 05:04:46;;;;;;;4.70;4.30;;;;;;;;;;5113364;28;20638;-79
2023/04/08 05:07:14;;;;;;;5.90;4.25;;;;;;;;;;5113341;28;20199;-79
2023/04/08 05:09:43;;;;;;;5.38;4.88;;;;;;;;;;5113295;28;20326;-79
2023/04/08 05:12:11;;;;;;;4.95;4.53;;;;;;;;;;5113673;28;20295;-79
2023/04/08 05:14:40;;;;;;;4.97;4.32;;;;;;;;;;5113412;28;20219;-79
2023/04/08 05:17:07;;;;;;;7.43;5.38;;;;;;;;;;5114010;28;20673;-80
2023/04/08 05:19:35;;;;;;;5.00;4.30;;;;;;;;;;5113052;28;20311;-80
2023/04/08 05:22:02;;;;;;;6.18;5.55;;;;;;;;;;5112621;28;20849;-80
2023/04/08 05:24:30;;;;;;;6.78;5.72;;;;;;;;;;5112148;28;20629;-79
2023/04/08 05:26:58;;;;;;;6.18;4.85;;;;;;;;;;5112372;28;20774;-79
2023/04/08 05:29:26;;;;;;;5.95;5.43;;;;;;;;;;5112044;28;20280;-79
2023/04/08 05:31:55;;;;;;;5.88;5.38;;;;;;;;;;5112547;28;20607;-80
2023/04/08 05:34:23;;;;;;;7.97;5.95;;;;;;;;;;5116264;28;20789;-80
2023/04/08 05:36:51;;;;;;;6.40;5.78;;;;;;;;;;5116544;28;20196;-80
2023/04/08 05:39:19;;;;;;;5.18;4.68;;;;;;;;;;5115851;28;20257;-80
2023/04/08 05:41:46;;;;;;;6.20;5.60;;;;;;;;;;5115846;28;20294;-78
2023/04/08 05:44:15;;;;;;;6.35;5.75;;;;;;;;;;5117487;28;20216;-79
2023/04/08 05:46:43;;;;;;;6.05;5.45;;;;;;;;;;5115792;28;20207;-78
2023/04/08 05:49:11;;;;;;;7.28;5.80;;;;;;;;;;5115659;28;20250;-78
2023/04/08 05:51:38;;;;;;;5.45;4.95;;;;;;;;;;5116285;28;20717;-78
2023/04/08 05:54:06;;;;;;;5.93;5.13;;;;;;;;;;5115550;28;20286;-78
2023/04/08 05:56:33;;;;;;;8.52;6.32;;;;;;;;;;5116219;28;20204;-78
2023/04/08 05:59:01;;;;;;;6.50;5.90;;;;;;;;;;5115409;28;20219;-78
2023/04/08 06:01:30;;;;;;;6.72;5.78;;;;;;;;;;5116238;28;20195;-77
2023/04/08 06:03:57;;;;;;;7.82;6.97;;;;;;;;;;5116523;28;20202;-77
2023/04/08 06:06:25;;;;;;;8.23;7.45;;;;;;;;;;5117886;28;20555;-77
2023/04/08 06:08:52;;;;;;;7.60;6.80;;;;;;;;;;5117115;28;20284;-78
2023/04/08 06:11:20;;;;;;;9.00;6.72;;;;;;;;;;5095983;28;20237;-77
2023/04/08 06:13:48;;;;;;;6.60;6.00;;;;;;;;;;5096292;28;20294;-78
2023/04/08 06:16:16;;;;;;;7.30;6.60;;;;;;;;;;5095306;28;20243;-78
2023/04/08 06:18:46;;;;;;;8.20;7.40;;;;;;;;;;5095056;28;20224;-78
2023/04/08 06:21:13;;;;;;;8.15;7.18;;;;;;;;;;5096073;28;20200;-77
2023/04/08 06:23:41;;;;;;;9.57;7.57;;;;;;;;;;5094551;28;20746;-78
2023/04/08 06:26:08;;;;;;;7.85;7.07;;;;;;;;;;5105786;28;20683;-77
2023/04/08 06:28:36;;;;;;;8.85;7.50;;;;;;;;;;5109573;28;20212;-77
2023/04/08 06:31:03;;;;;;;8.85;7.95;;;;;;;;;;5102061;28;20198;-78
2023/04/08 06:33:31;;;;;;;8.43;7.55;;;;;;;;;;5104337;28;20599;-78
2023/04/08 06:36:07;;;;;;;10.27;9.25;;;;;;;;;;5103219;28;20299;-79
2023/04/08 06:38:35;;;;;;;9.05;8.13;;;;;;;;;;5103515;28;20250;-78
2023/04/08 06:41:03;;;;;;;10.45;9.18;;;;;;;;;;5105489;28;20204;-78
2023/04/08 06:43:31;;;;;;;9.50;8.52;;;;;;;;;;5103028;28;20184;-78
2023/04/08 06:45:59;;;;;;;11.05;9.95;;;;;;;;;;5099424;28;20215;-79
2023/04/08 06:48:29;;;;;;;11.38;9.35;;;;;;;;;;5098420;28;20212;-79
2023/04/08 06:50:56;;;;;;;12.25;9.85;;;;;;;;;;5093500;28;20564;-79
2023/04/08 06:53:26;;;;;;;12.25;10.98;;;;;;;;;;5095410;28;20291;-79
2023/04/08 06:55:54;;;;;;;11.18;9.73;;;;;;;;;;5095922;28;20315;-79
2023/04/08 06:58:21;;;;;;;11.02;9.90;;;;;;;;;;5095581;28;20687;-80
2023/04/08 07:00:49;;;;;;;12.63;10.57;;;;;;;;;;5100875;28;20279;-80
2023/04/08 07:03:16;;;;;;;11.75;10.55;;;;;;;;;;5104568;28;20660;-80
2023/04/08 07:05:44;;;;;;;10.48;9.48;;;;;;;;;;5108584;28;20590;-79
2023/04/08 07:08:11;;;;;;;10.00;9.05;;;;;;;;;;5098091;28;20308;-79
2023/04/08 07:10:41;;;;;;;11.30;10.20;;;;;;;;;;5114543;28;20239;-79
2023/04/08 07:13:08;;;;;;;10.68;9.52;;;;;;;;;;5118353;28;20234;-78
2023/04/08 07:15:35;;;;;;;11.27;10.15;;;;;;;;;;5117852;28;20223;-78
2023/04/08 07:18:03;;;;;;;11.70;10.23;;;;;;;;;;5118990;28;20261;-78
2023/04/08 07:20:31;;;;;;;12.40;10.00;;;;;;;;;;5119891;28;20192;-78
2023/04/08 07:22:58;;;;;;;9.50;8.50;;;;;;;;;;5119383;28;20291;-78
2023/04/08 07:25:26;;;;;;;9.95;8.80;;;;;;;;;;5118601;28;20196;-79
2023/04/08 07:27:55;;;;;;;10.57;9.43;;;;;;;;;;5115492;28;20766;-79
2023/04/08 07:30:22;;;;;;;10.38;8.55;;;;;;;;;;5115096;27;20211;-79
2023/04/08 07:32:50;;;;;;;9.35;8.35;;;;;;;;;;5114963;28;20207;-79
2023/04/08 07:35:23;;;;;;;10.63;8.68;;;;;;;;;;5114761;28;20223;-79
2023/04/08 07:37:51;;;;;;;8.88;7.97;;;;;;;;;;5114889;28;20671;-79
2023/04/08 07:40:19;;;;;;;9.07;8.07;;;;;;;;;;5114978;28;20284;-78
2023/04/08 07:42:47;;;;;;;9.93;8.93;;;;;;;;;;5114648;28;20199;-79
2023/04/08 07:45:16;;;;;;;9.30;8.40;;;;;;;;;;5114323;28;20647;-79
2023/04/08 07:47:43;;;;;;;8.18;7.32;;;;;;;;;;5103556;28;20218;-78
2023/04/08 07:50:12;;;;;;;9.50;8.50;;;;;;;;;;5093570;28;20589;-78
2023/04/08 07:52:39;;;;;;;8.48;7.43;;;;;;;;;;5094454;28;20200;-79
2023/04/08 07:55:08;;;;;;;7.03;6.32;;;;;;;;;;5094085;28;20231;-82
2023/04/08 07:57:36;;;;;;;8.40;7.47;;;;;;;;;;5094241;28;20200;-81
2023/04/08 08:00:03;;;;;;;7.90;7.10;;;;;;;;;;5094621;28;20286;-79
2023/04/08 08:02:33;;;;;;;8.15;7.35;;;;;;;;;;5095199;28;20208;-80
2023/04/08 08:05:02;;;;;;;6.78;6.10;;;;;;;;;;5097520;28;20198;-80
2023/04/08 08:07:30;;;;;;;8.77;7.85;;;;;;;;;;5095208;28;20202;-79
2023/04/08 08:09:57;;;;;;;8.32;7.38;;;;;;;;;;5103611;28;20219;-79
2023/04/08 08:12:25;;;;;;;7.30;6.55;;;;;;;;;;5115367;28;20195;-79
2023/04/08 08:14:53;;;;;;;7.10;6.50;;;;;;;;;;5116642;28;20286;-79
2023/04/08 08:17:21;;;;;;;7.95;7.15;;;;;;;;;;5106464;28;20691;-79
2023/04/08 08:19:50;;;;;;;7.95;7.00;;;;;;;;;;5093320;28;20787;-78
2023/04/08 08:22:17;;;;;;;8.52;7.72;;;;;;;;;;5094805;28;20251;-79
2023/04/08 08:24:45;;;;;;;8.80;6.53;;;;;;;;;;5093113;28;20619;-79
2023/04/08 08:27:12;;;;;;;10.25;8.13;;;;;;;;;;5093246;28;20286;-79
2023/04/08 08:29:40;;;;;;;7.30;6.60;;;;;;;;;;5094093;28;20316;-79
2023/04/08 08:32:07;;;;;;;9.05;8.15;;;;;;;;;;5093082;28;20250;-78
2023/04/08 08:34:34;;;;;;;6.90;6.20;;;;;;;;;;5093367;28;20271;-79
2023/04/08 08:37:03;;;;;;;7.65;6.85;;;;;;;;;;5093067;28;20307;-78
2023/04/08 08:39:31;;;;;;;7.22;6.07;;;;;;;;;;5097845;28;20234;-78
2023/04/08 08:41:58;;;;;;;7.63;6.25;;;;;;;;;;5115971;28;20203;-79
2023/04/08 08:44:26;;;;;;;8.77;7.93;;;;;;;;;;5113724;28;20294;-79
2023/04/08 08:46:54;;;;;;;6.80;6.07;;;;;;;;;;5114346;28;20200;-78
2023/04/08 08:49:22;;;;;;;8.93;7.15;;;;;;;;;;5113378;28;20298;-79
2023/04/08 08:51:50;;;;;;;8.10;7.30;;;;;;;;;;5113056;28;20203;-78
2023/04/08 08:54:19;;;;;;;6.93;6.22;;;;;;;;;;5113047;28;20295;-79
2023/04/08 08:56:47;;;;;;;8.40;7.60;;;;;;;;;;5113282;28;20272;-78
2023/04/08 08:59:15;;;;;;;6.70;6.03;;;;;;;;;;5112541;28;20312;-78
2023/04/08 09:01:42;;;;;;;7.20;6.30;;;;;;;;;;5112966;28;20290;-78
2023/04/08 09:04:15;;;;;;;8.40;6.80;;;;;;;;;;5112926;28;20199;-78
2023/04/08 09:06:43;;;;;;;7.78;6.18;;;;;;;;;;5113857;28;20614;-79
2023/04/08 09:09:11;;;;;;;6.65;5.95;;;;;;;;;;5115419;28;20242;-79
2023/04/08 09:11:40;;;;;;;6.38;5.78;;;;;;;;;;5115153;28;20206;-78
2023/04/08 09:14:22;;;;;;;7.18;6.47;;;;;;;;;;5117388;28;20210;-79
2023/04/08 09:16:50;;;;;;;6.45;5.75;;;;;;;;;;5117524;28;20225;-78
2023/04/08 09:19:18;;;;;;;5.78;5.28;;;;;;;;;;5116945;28;20280;-78
2023/04/08 09:21:46;;;;;;;6.85;5.82;;;;;;;;;;5117920;28;20644;-77
2023/04/08 09:24:29;;;;;;;9.30;7.78;;;;;;;;;;5117632;28;20725;-77
2023/04/08 09:26:57;;;;;;;6.93;6.18;;;;;;;;;;5119881;28;20757;-79
2023/04/08 09:29:26;;;;;;;5.85;5.32;;;;;;;;;;5120612;27;20230;-77
2023/04/08 09:31:57;;;;;;;10.15;8.00;;;;;;;;;;5118607;27;20264;-78
2023/04/08 09:34:26;;;;;;;7.30;6.40;;;;;;;;;;5117860;28;20199;-78
2023/04/08 09:36:55;;;;;;;8.40;6.40;;;;;;;;;;5117382;28;20223;-78
2023/04/08 09:39:23;;;;;;;5.50;4.97;;;;;;;;;;5116649;27;20264;-78
2023/04/08 09:41:52;;;;;;;5.65;5.05;;;;;;;;;;5108281;28;20191;-79
2023/04/08 09:44:22;;;;;;;6.07;5.53;;;;;;;;;;5116787;28;20206;-78
2023/04/08 09:47:00;;;;;;;7.00;6.20;;;;;;;;;;5111510;28;20211;-79
2023/04/08 09:49:30;;;;;;;7.25;6.13;;;;;;;;;;5115967;28;20316;-80
2023/04/08 09:52:08;;;;;;;7.07;6.38;;;;;;;;;;5105391;28;20536;-79
2023/04/08 09:54:44;;;;;;;6.63;5.95;;;;;;;;;;5096837;28;20203;-79
2023/04/08 09:57:16;;;;;;;6.38;5.55;;;;;;;;;;5096552;28;20601;-79
2023/04/08 09:59:54;;;;;;;7.22;6.53;;;;;;;;;;5096292;28;20315;-79
2023/04/08 10:02:29;;;;;;;6.70;5.95;;;;;;;;;;5096087;28;20617;-79
2023/04/08 10:04:58;;;;;;;6.22;5.70;;;;;;;;;;5096775;28;20558;-79
2023/04/08 10:07:26;;;;;;;8.23;6.57;;;;;;;;;;5096044;28;20197;-79
2023/04/08 10:09:53;;;;;;;6.82;6.18;;;;;;;;;;5103482;22;20257;-84
2023/04/08 10:12:21;;;;;;;8.25;7.38;;;;;;;;;;5078050;28;20283;-83
2023/04/08 10:15:24;;;;;;;8.65;6.78;;;;;;;;;;5078281;28;20205;-83
2023/04/08 10:17:51;;;;;;;6.80;6.07;;;;;;;;;;5078455;28;20680;-84
2023/04/08 10:20:49;;;;;;;7.07;6.28;;;;;;;;;;5078352;28;20231;-83
2023/04/08 10:23:19;;;;;;;8.27;6.85;;;;;;;;;;4976823;28;20226;-83
2023/04/08 10:25:48;;;;;;;5.60;5.10;;;;;;;;;;5056357;28;20578;-83
2023/04/08 10:28:25;;;;;;;7.10;5.70;;;;;;;;;;5077422;28;20201;-83
2023/04/08 10:30:56;;;;;;;7.65;6.82;;;;;;;;;;5077437;28;20211;-83
2023/04/08 10:33:31;;;;;;;8.15;7.35;;;;;;;;;;5077221;28;20240;-84
2023/04/08 10:36:08;;;;;;;8.15;7.35;;;;;;;;;;5076788;28;20207;-82
2023/04/08 10:38:36;;;;;;;6.68;5.80;;;;;;;;;;5076524;28;20715;-84
2023/04/08 10:41:04;;;;;;;9.05;7.30;;;;;;;;;;5076755;28;20205;-83
2023/04/08 10:43:33;;;;;;;9.55;8.15;;;;;;;;;;5077435;28;20197;-82
2023/04/08 10:46:03;;;;;;;8.48;7.63;;;;;;;;;;5077605;28;20201;-83
2023/04/08 10:48:31;;;;;;;7.97;7.18;;;;;;;;;;5076924;28;20208;-83
2023/04/08 10:51:00;;;;;;;10.13;8.90;;;;;;;;;;5078294;28;20268;-84
2023/04/08 10:53:29;;;;;;;8.43;7.53;;;;;;;;;;5076651;28;20628;-83
2023/04/08 10:56:05;;;;;;;9.25;7.60;;;;;;;;;;5076688;28;20207;-83
2023/04/08 10:58:33;;;;;;;7.68;6.88;;;;;;;;;;5075817;28;20231;-82
2023/04/08 11:01:07;;;;;;;7.07;6.38;;;;;;;;;;5075654;28;20236;-83
2023/04/08 11:03:35;;;;;;;9.40;8.30;;;;;;;;;;5073869;28;20189;-82
2023/04/08 11:06:03;;;;;;;9.77;8.77;;;;;;;;;;5066309;28;20325;-85
2023/04/08 11:08:31;;;;;;;10.50;8.95;;;;;;;;;;5065893;28;20232;-83
2023/04/08 11:11:00;;;;;;;11.68;9.95;;;;;;;;;;5073929;28;20259;-81
2023/04/08 11:13:27;;;;;;;10.95;9.60;;;;;;;;;;5074059;28;20197;-82
2023/04/08 11:15:55;;;;;;;12.32;10.63;;;;;;;;;;5074911;28;20211;-81
2023/04/08 11:18:25;;;;;;;12.57;10.15;;;;;;;;;;5072960;28;20220;-80
2023/04/08 11:20:53;;;;;;;12.48;9.93;;;;;;;;;;5074118;28;20189;-82
2023/04/08 11:23:21;;;;;;;12.85;10.63;;;;;;;;;;5056444;28;20223;-81
2023/04/08 11:25:49;;;;;;;10.85;9.73;;;;;;;;;;5054346;28;20205;-82
2023/04/08 11:28:19;;;;;;;12.38;11.13;;;;;;;;;;5054388;28;20400;-80
2023/04/08 11:30:47;;;;;;;12.45;11.15;;;;;;;;;;5065006;28;20204;-82
2023/04/08 11:33:15;;;;;;;12.85;11.48;;;;;;;;;;5074372;28;20243;-82
2023/04/08 11:35:45;;;;;;;11.40;10.07;;;;;;;;;;5074274;28;20201;-82
2023/04/08 11:38:12;;;;;;;13.10;10.65;;;;;;;;;;5073700;28;20708;-81
2023/04/08 11:40:40;;;;;;;12.50;10.75;;;;;;;;;;5073512;28;20288;-82
2023/04/08 11:43:14;;;;;;;11.50;10.38;;;;;;;;;;5073784;28;20300;-83
2023/04/08 11:45:42;;;;;;;13.70;11.75;;;;;;;;;;5073928;28;20240;-82
2023/04/08 11:48:11;;;;;;;12.00;10.65;;;;;;;;;;5073857;28;20197;-82
2023/04/08 11:50:38;;;;;;;15.77;11.63;;;;;;;;;;5073056;28;20242;-82
2023/04/08 11:53:18;;;;;;;11.55;10.38;;;;;;;;;;5073255;28;20280;-83
2023/04/08 11:55:46;;;;;;;12.77;10.93;;;;;;;;;;5073499;28;20235;-83
2023/04/08 11:58:14;;;;;;;14.45;11.32;;;;;;;;;;5073682;28;20216;-82
2023/04/08 12:00:42;;;;;;;13.13;11.55;;;;;;;;;;5073841;28;20204;-84
2023/04/08 12:03:10;;;;;;;12.52;11.07;;;;;;;;;;5071712;28;20205;-83
2023/04/08 12:05:38;;;;;;;14.70;11.48;;;;;;;;;;5068677;28;20197;-83
2023/04/08 12:08:06;;;;;;;14.55;12.52;;;;;;;;;;5072049;28;20293;-84
2023/04/08 12:10:34;;;;;;;14.82;11.30;;;;;;;;;;5066596;28;20237;-83
2023/04/08 12:13:01;;;;;;;14.18;12.57;;;;;;;;;;5059369;28;20239;-83
2023/04/08 12:15:29;;;;;;;14.63;12.32;;;;;;;;;;5054956;28;20285;-81
2023/04/08 12:17:57;;;;;;;12.85;10.95;;;;;;;;;;5053315;28;20205;-83
2023/04/08 12:20:24;;;;;;;14.75;11.35;;;;;;;;;;5052163;28;20308;-83
2023/04/08 12:22:52;;;;;;;13.90;10.75;;;;;;;;;;5053140;28;20208;-84
2023/04/08 12:25:21;;;;;;;13.30;11.13;;;;;;;;;;5052567;28;20293;-82
2023/04/08 12:27:49;;;;;;;15.68;12.27;;;;;;;;;;5052626;28;20201;-82
2023/04/08 12:30:16;;;;;;;12.52;10.02;;;;;;;;;;5052616;28;20221;-84
2023/04/08 12:32:46;;;;;;;13.90;10.98;;;;;;;;;;5057067;28;20296;-83
2023/04/08 12:35:13;;;;;;;10.80;9.70;;;;;;;;;;5072838;28;20236;-82
2023/04/08 12:37:41;;;;;;;14.75;11.25;;;;;;;;;;5072901;28;20291;-83
2023/04/08 12:40:09;;;;;;;13.48;11.50;;;;;;;;;;5072058;28;20311;-84
2023/04/08 12:42:38;;;;;;;11.82;10.18;;;;;;;;;;5072767;28;20197;-83
2023/04/08 12:45:07;;;;;;;11.65;10.15;;;;;;;;;;5072805;28;20233;-82
2023/04/08 12:47:35;;;;;;;11.43;10.23;;;;;;;;;;5073129;28;20208;-83
2023/04/08 12:50:02;;;;;;;10.77;9.65;;;;;;;;;;5072235;28;20308;-83
2023/04/08 12:52:30;;;;;;;11.57;10.18;;;;;;;;;;5072786;28;20291;-82
2023/04/08 12:54:57;;;;;;;12.68;11.32;;;;;;;;;;5072619;28;20736;-82
2023/04/08 12:57:26;;;;;;;13.50;11.30;;;;;;;;;;5073043;28;20200;-82
2023/04/08 12:59:55;;;;;;;12.10;10.80;;;;;;;;;;5072865;28;20594;-82
2023/04/08 13:02:24;;;;;;;11.43;10.25;;;;;;;;;;5073927;28;20228;-81
2023/04/08 13:04:52;;;;;;;12.73;10.25;;;;;;;;;;5072806;28;20213;-82
2023/04/08 13:07:19;;;;;;;11.93;9.93;;;;;;;;;;5072304;28;20204;-82
2023/04/08 13:09:47;;;;;;;12.77;9.95;;;;;;;;;;5071691;28;20216;-82
2023/04/08 13:12:15;;;;;;;10.75;9.27;;;;;;;;;;5064010;28;20220;-81
2023/04/08 13:14:42;;;;;;;10.85;9.75;;;;;;;;;;5072405;28;20304;-82
2023/04/08 13:17:11;;;;;;;11.30;9.43;;;;;;;;;;5072398;28;20273;-83
2023/04/08 13:19:38;;;;;;;10.82;9.48;;;;;;;;;;5065920;28;20308;-82
2023/04/08 13:22:06;;;;;;;8.93;8.02;;;;;;;;;;5072197;28;20297;-84
2023/04/08 13:24:33;;;;;;;8.30;7.50;;;;;;;;;;5072256;28;20278;-84
2023/04/08 13:27:02;;;;;;;10.98;8.75;;;;;;;;;;5072417;28;20284;-84
2023/04/08 13:29:29;;;;;;;10.45;8.88;;;;;;;;;;5072223;28;20209;-84
2023/04/08 13:31:57;;;;;;;13.00;10.85;;;;;;;;;;5072519;28;20759;-84
2023/04/08 13:34:26;;;;;;;10.27;8.93;;;;;;;;;;5071862;28;20237;-83
2023/04/08 13:36:53;;;;;;;10.68;9.48;;;;;;;;;;5069747;28;20327;-83
2023/04/08 13:39:21;;;;;;;9.57;8.40;;;;;;;;;;5055580;28;20265;-83
2023/04/08 13:41:49;;;;;;;7.70;6.93;;;;;;;;;;5072594;28;20242;-83
2023/04/08 13:44:17;;;;;;;6.22;5.68;;;;;;;;;;5072622;28;20608;-83
2023/04/08 13:46:44;;;;;;;9.65;8.55;;;;;;;;;;5072156;28;20193;-83
2023/04/08 13:49:12;;;;;;;7.22;6.60;;;;;;;;;;5066296;28;20214;-84
2023/04/08 13:51:41;;;;;;;9.82;8.65;;;;;;;;;;5053154;28;20596;-84
2023/04/08 13:54:08;;;;;;;11.02;8.90;;;;;;;;;;5055189;28;20300;-82
2023/04/08 13:56:36;;;;;;;10.13;8.43;;;;;;;;;;5057324;28;20293;-83
2023/04/08 13:59:03;;;;;;;10.00;8.75;;;;;;;;;;5057850;28;20317;-83
2023/04/08 14:01:31;;;;;;;9.95;8.65;;;;;;;;;;5057102;28;20209;-84
2023/04/08 14:03:59;;;;;;;10.60;8.98;;;;;;;;;;5056764;28;20205;-84
2023/04/08 14:06:26;;;;;;;8.77;7.72;;;;;;;;;;5055736;28;20289;-84
2023/04/08 14:08:55;;;;;;;9.45;8.10;;;;;;;;;;5055811;28;20243;-82
2023/04/08 14:11:23;;;;;;;8.80;7.72;;;;;;;;;;5055240;28;20233;-83
2023/04/08 14:13:50;;;;;;;10.07;8.48;;;;;;;;;;5055708;28;20684;-83
2023/04/08 14:16:18;;;;;;;9.40;7.88;;;;;;;;;;5056675;28;20293;-87
2023/04/08 14:18:46;;;;;;;8.02;7.18;;;;;;;;;;5056316;28;20222;-86
2023/04/08 14:21:14;;;;;;;8.38;7.40;;;;;;;;;;5055674;28;20304;-86
2023/04/08 14:23:42;;;;;;;7.55;6.32;;;;;;;;;;5058526;28;20740;-87
2023/04/08 14:26:11;;;;;;;9.05;7.10;;;;;;;;;;5056018;28;20241;-86
2023/04/08 14:28:38;;;;;;;6.60;5.90;;;;;;;;;;5055314;28;20705;-87
2023/04/08 14:31:06;;;;;;;11.13;7.18;;;;;;;;;;5057007;28;20281;-85
2023/04/08 14:33:33;;;;;;;6.88;6.15;;;;;;;;;;5067141;28;20212;-86
2023/04/08 14:36:01;;;;;;;6.53;5.57;;;;;;;;;;5075823;28;20204;-85
2023/04/08 14:38:28;;;;;;;5.10;4.57;;;;;;;;;;5072559;28;20284;-82
2023/04/08 14:40:56;;;;;;;5.28;4.78;;;;;;;;;;5073097;28;20225;-88
2023/04/08 14:43:25;;;;;;;6.03;5.40;;;;;;;;;;5076974;28;20193;-86
2023/04/08 14:45:52;;;;;;;8.63;7.40;;;;;;;;;;5076087;28;20240;-86